createdAt,value
2018-06-16T00:02:10.505Z,30.90
2018-06-16T00:04:42.085Z,30.90
2018-06-16T00:07:13.809Z,30.90
2018-06-16T00:09:45.612Z,30.90
2018-06-16T00:12:18.048Z,30.90
2018-06-16T00:14:49.756Z,30.90
2018-06-16T00:17:21.352Z,30.90
2018-06-16T00:19:52.869Z,30.80
2018-06-16T00:22:24.870Z,30.80
2018-06-16T00:24:59.964Z,30.80
2018-06-16T00:32:34.827Z,30.70
2018-06-16T00:37:37.773Z,30.60
2018-06-16T00:40:09.428Z,30.60
2018-06-16T00:42:41.228Z,30.60
2018-06-16T00:45:12.884Z,30.60
2018-06-16T00:47:44.741Z,30.60
2018-06-16T00:50:16.477Z,30.50
2018-06-16T00:52:48.124Z,30.50
2018-06-16T00:55:19.816Z,30.50
2018-06-16T00:57:51.844Z,30.50
2018-06-16T01:00:23.430Z,30.40
2018-06-16T01:02:55.265Z,30.50
2018-06-16T01:05:26.687Z,30.40
2018-06-16T01:07:58.467Z,30.50
2018-06-16T01:10:30.171Z,30.40
2018-06-16T01:13:01.653Z,30.40
2018-06-16T01:15:33.269Z,30.30
2018-06-16T01:18:05.061Z,30.30
2018-06-16T01:20:36.560Z,30.30
2018-06-16T01:23:08.322Z,30.30
2018-06-16T01:25:39.860Z,30.30
2018-06-16T01:28:13.599Z,30.30
2018-06-16T01:30:45.127Z,30.30
2018-06-16T01:33:16.807Z,30.30
2018-06-16T01:35:48.397Z,30.30
2018-06-16T01:38:20.317Z,30.30
2018-06-16T01:40:52.151Z,30.30
2018-06-16T01:43:24.641Z,30.30
2018-06-16T01:45:56.399Z,30.20
2018-06-16T01:48:28.508Z,30.20
2018-06-16T01:51:00.023Z,30.20
2018-06-16T01:53:31.748Z,30.30
2018-06-16T01:56:03.332Z,30.30
2018-06-16T01:58:35.132Z,30.30
2018-06-16T02:01:06.612Z,30.30
2018-06-16T02:03:38.417Z,30.30
2018-06-16T02:06:10.074Z,30.30
2018-06-16T02:08:41.836Z,30.30
2018-06-16T02:11:13.416Z,30.40
2018-06-16T02:13:45.304Z,30.50
2018-06-16T02:16:17.013Z,30.50
2018-06-16T02:18:48.830Z,30.60
2018-06-16T02:21:20.479Z,30.60
2018-06-16T02:23:52.438Z,30.70
2018-06-16T02:26:24.090Z,30.80
2018-06-16T02:28:56.919Z,30.80
2018-06-16T02:31:28.567Z,30.90
2018-06-16T02:34:00.067Z,31.00
2018-06-16T02:36:31.641Z,31.00
2018-06-16T02:39:03.868Z,31.10
2018-06-16T02:41:35.621Z,31.30
2018-06-16T02:44:07.172Z,31.30
2018-06-16T02:46:38.905Z,31.40
2018-06-16T02:49:10.892Z,31.60
2018-06-16T02:54:13.690Z,31.70
2018-06-16T02:56:46.565Z,31.80
2018-06-16T03:04:32.166Z,32.00
2018-06-16T03:07:04.033Z,32.00
2018-06-16T03:09:36.929Z,32.10
2018-06-16T03:12:08.353Z,32.10
2018-06-16T03:14:40.428Z,32.10
2018-06-16T03:17:12.219Z,32.40
2018-06-16T03:19:43.981Z,32.50
2018-06-16T03:22:15.243Z,32.70
2018-06-16T03:24:47.001Z,32.90
2018-06-16T03:27:18.711Z,33.00
2018-06-16T03:29:52.756Z,33.10
2018-06-16T03:32:24.862Z,33.10
2018-06-16T03:34:56.632Z,33.20
2018-06-16T03:37:28.189Z,33.40
2018-06-16T03:40:00.039Z,33.60
2018-06-16T03:42:31.599Z,33.70
2018-06-16T03:45:03.559Z,34.00
2018-06-16T03:47:35.053Z,34.20
2018-06-16T03:50:06.971Z,34.30
2018-06-16T03:52:38.535Z,34.30
2018-06-16T03:55:10.584Z,34.50
2018-06-16T03:57:42.334Z,34.70
2018-06-16T04:00:14.190Z,34.90
2018-06-16T04:02:45.807Z,35.10
2018-06-16T04:05:17.705Z,35.30
2018-06-16T04:07:49.519Z,35.60
2018-06-16T04:10:21.440Z,35.90
2018-06-16T04:12:53.261Z,36.10
2018-06-16T04:15:25.065Z,36.30
2018-06-16T04:17:56.541Z,36.60
2018-06-16T04:20:28.854Z,36.80
2018-06-16T04:23:00.550Z,37.00
2018-06-16T04:25:32.578Z,37.20
2018-06-16T04:28:04.189Z,37.30
2018-06-16T04:30:37.400Z,37.40
2018-06-16T04:33:09.135Z,37.50
2018-06-16T04:38:11.829Z,37.90
2018-06-16T04:40:43.594Z,38.00
2018-06-16T04:43:15.065Z,38.30
2018-06-16T04:45:47.097Z,38.40
2018-06-16T04:50:51.661Z,38.80
2018-06-16T04:53:23.353Z,39.50
2018-06-16T04:55:55.217Z,40.50
2018-06-16T04:58:26.757Z,41.40
2018-06-16T05:00:58.652Z,42.30
2018-06-16T05:03:30.686Z,42.90
2018-06-16T05:11:04.648Z,42.80
2018-06-16T05:13:36.444Z,42.50
2018-06-16T05:16:08.125Z,42.10
2018-06-16T05:18:40.221Z,41.70
2018-06-16T05:21:12.948Z,41.60
2018-06-16T05:23:44.501Z,41.80
2018-06-16T05:26:16.079Z,42.20
2018-06-16T05:28:47.786Z,43.00
2018-06-16T05:31:21.781Z,43.40
2018-06-16T05:33:53.458Z,43.80
2018-06-16T05:36:25.644Z,44.40
2018-06-16T05:38:57.528Z,44.70
2018-06-16T05:41:29.396Z,44.70
2018-06-16T05:44:00.927Z,44.60
2018-06-16T05:46:32.591Z,44.60
2018-06-16T05:49:04.317Z,44.40
2018-06-16T05:54:07.039Z,43.80
2018-06-16T05:56:38.431Z,43.30
2018-06-16T05:59:10.615Z,42.10
2018-06-16T06:01:43.173Z,42.20
2018-06-16T06:04:14.907Z,42.60
2018-06-16T06:06:47.087Z,42.00
2018-06-16T06:09:18.775Z,42.20
2018-06-16T06:11:50.663Z,43.10
2018-06-16T06:14:22.259Z,43.50
2018-06-16T06:16:54.462Z,44.30
2018-06-16T06:19:26.153Z,44.30
2018-06-16T06:21:57.982Z,44.90
2018-06-16T06:24:29.673Z,44.40
2018-06-16T06:27:01.297Z,44.70
2018-06-16T06:29:32.983Z,46.20
2018-06-16T06:32:08.175Z,45.90
2018-06-16T06:34:39.794Z,44.70
2018-06-16T06:37:11.771Z,45.30
2018-06-16T06:39:43.395Z,44.70
2018-06-16T06:44:46.398Z,43.60
2018-06-16T06:47:18.243Z,43.10
2018-06-16T06:49:49.860Z,42.80
2018-06-16T06:52:21.599Z,42.50
2018-06-16T06:54:53.597Z,42.10
2018-06-16T06:57:25.326Z,41.90
2018-06-16T06:59:56.881Z,42.10
2018-06-16T07:02:28.553Z,41.90
2018-06-16T07:05:00.263Z,42.10
2018-06-16T07:10:03.451Z,41.80
2018-06-16T07:12:35.201Z,41.50
2018-06-16T07:15:06.794Z,41.60
2018-06-16T07:17:38.594Z,41.80
2018-06-16T07:20:10.367Z,42.70
2018-06-16T07:22:42.245Z,43.40
2018-06-16T07:25:13.882Z,44.40
2018-06-16T07:27:45.870Z,44.60
2018-06-16T07:30:17.745Z,45.00
2018-06-16T07:32:50.919Z,45.80
2018-06-16T07:35:22.603Z,45.90
2018-06-16T07:37:54.419Z,44.90
2018-06-16T07:40:26.060Z,45.50
2018-06-16T07:42:57.869Z,44.60
2018-06-16T07:48:00.227Z,43.00
2018-06-16T07:50:31.942Z,41.80
2018-06-16T07:53:04.251Z,41.20
2018-06-16T07:55:36.064Z,40.60
2018-06-16T08:00:38.549Z,39.90
2018-06-16T08:03:10.474Z,40.00
2018-06-16T08:05:42.291Z,40.00
2018-06-16T08:08:14.081Z,39.90
2018-06-16T08:10:45.812Z,39.80
2018-06-16T08:15:49.468Z,40.00
2018-06-16T08:18:21.340Z,39.90
2018-06-16T08:20:53.379Z,39.90
2018-06-16T08:23:25.562Z,39.80
2018-06-16T08:25:57.131Z,39.70
2018-06-16T08:28:28.992Z,39.70
2018-06-16T08:31:00.444Z,39.80
2018-06-16T08:33:33.716Z,39.50
2018-06-16T08:36:05.279Z,39.60
2018-06-16T08:38:36.843Z,39.70
2018-06-16T08:41:08.367Z,39.60
2018-06-16T08:43:40.353Z,39.80
2018-06-16T08:46:12.094Z,39.90
2018-06-16T08:51:15.125Z,39.80
2018-06-16T08:53:47.200Z,39.80
2018-06-16T08:56:19.011Z,39.70
2018-06-16T08:58:51.491Z,39.70
2018-06-16T09:03:54.071Z,39.70
2018-06-16T09:08:56.628Z,39.70
2018-06-16T09:11:28.356Z,39.80
2018-06-16T09:14:00.101Z,39.80
2018-06-16T09:16:31.545Z,39.80
2018-06-16T09:21:34.450Z,39.80
2018-06-16T09:26:37.452Z,39.90
2018-06-16T09:29:09.354Z,39.80
2018-06-16T09:31:41.012Z,39.60
2018-06-16T09:34:14.256Z,39.60
2018-06-16T09:36:46.122Z,39.60
2018-06-16T09:39:17.958Z,39.70
2018-06-16T09:41:49.517Z,39.80
2018-06-16T09:44:21.733Z,39.70
2018-06-16T09:46:53.445Z,39.70
2018-06-16T09:49:25.479Z,39.40
2018-06-16T09:51:57.225Z,39.40
2018-06-16T09:54:29.136Z,39.40
2018-06-16T09:57:00.723Z,39.60
2018-06-16T09:59:32.753Z,39.60
2018-06-16T10:02:04.411Z,39.60
2018-06-16T10:04:36.210Z,39.70
2018-06-16T10:07:08.762Z,39.90
2018-06-16T10:09:40.791Z,39.80
2018-06-16T10:12:12.488Z,39.70
2018-06-16T10:14:44.971Z,39.60
2018-06-16T10:17:16.773Z,39.40
2018-06-16T10:19:48.276Z,39.30
2018-06-16T10:22:19.827Z,39.40
2018-06-16T10:24:51.830Z,39.50
2018-06-16T10:27:23.272Z,39.50
2018-06-16T10:32:25.817Z,39.30
2018-06-16T10:34:57.529Z,39.40
2018-06-16T10:37:29.307Z,39.40
2018-06-16T10:40:00.869Z,39.30
2018-06-16T10:42:32.653Z,39.20
2018-06-16T10:45:04.801Z,39.20
2018-06-16T10:47:36.591Z,39.20
2018-06-16T10:50:08.511Z,39.10
2018-06-16T10:52:40.427Z,39.10
2018-06-16T10:55:12.351Z,39.00
2018-06-16T10:57:43.737Z,39.00
2018-06-16T11:00:15.566Z,39.00
2018-06-16T11:02:47.335Z,38.90
2018-06-16T11:05:19.257Z,39.00
2018-06-16T11:07:51.306Z,39.00
2018-06-16T11:10:23.069Z,39.00
2018-06-16T11:15:25.613Z,39.00
2018-06-16T11:17:57.180Z,39.00
2018-06-16T11:20:28.725Z,38.90
2018-06-16T11:23:00.415Z,38.80
2018-06-16T11:25:32.366Z,38.80
2018-06-16T11:28:03.963Z,38.80
2018-06-16T11:30:35.937Z,38.70
2018-06-16T11:35:38.691Z,38.40
2018-06-16T11:38:10.311Z,38.40
2018-06-16T11:40:42.532Z,38.40
2018-06-16T11:43:14.200Z,38.40
2018-06-16T11:45:45.859Z,38.20
2018-06-16T11:48:17.722Z,38.30
2018-06-16T11:50:49.267Z,38.30
2018-06-16T11:53:20.809Z,38.20
2018-06-16T11:55:54.416Z,38.20
2018-06-16T11:58:26.058Z,38.10
2018-06-16T12:00:57.843Z,38.10
2018-06-16T12:03:29.561Z,38.00
2018-06-16T12:06:01.836Z,38.00
2018-06-16T12:08:34.759Z,38.00
2018-06-16T12:13:37.266Z,37.90
2018-06-16T12:18:39.929Z,38.00
2018-06-16T12:21:11.993Z,37.90
2018-06-16T12:23:43.480Z,37.80
2018-06-16T12:26:15.202Z,37.80
2018-06-16T12:28:46.807Z,37.70
2018-06-16T12:31:18.421Z,37.70
2018-06-16T12:33:49.772Z,37.70
2018-06-16T12:36:21.766Z,37.70
2018-06-16T12:38:53.545Z,37.60
2018-06-16T12:41:25.108Z,37.60
2018-06-16T12:43:56.504Z,37.50
2018-06-16T12:46:28.245Z,37.50
2018-06-16T12:48:59.697Z,37.50
2018-06-16T12:51:31.516Z,37.50
2018-06-16T12:54:03.212Z,37.50
2018-06-16T12:56:35.372Z,37.40
2018-06-16T12:59:07.213Z,37.30
2018-06-16T13:01:38.892Z,37.30
2018-06-16T13:04:10.490Z,37.30
2018-06-16T13:06:42.808Z,37.10
2018-06-16T13:09:15.390Z,37.10
2018-06-16T13:14:18.435Z,37.10
2018-06-16T13:16:50.594Z,37.20
2018-06-16T13:19:22.180Z,37.20
2018-06-16T13:21:53.967Z,37.20
2018-06-16T13:24:25.646Z,37.20
2018-06-16T13:26:57.773Z,37.10
2018-06-16T13:29:29.476Z,37.00
2018-06-16T13:32:01.183Z,37.00
2018-06-16T13:34:32.713Z,37.00
2018-06-16T13:37:04.932Z,36.90
2018-06-16T13:39:36.670Z,36.80
2018-06-16T13:42:08.743Z,36.80
2018-06-16T13:44:40.351Z,36.80
2018-06-16T13:47:12.072Z,36.70
2018-06-16T13:49:43.694Z,36.70
2018-06-16T13:52:15.612Z,36.70
2018-06-16T13:54:47.368Z,36.80
2018-06-16T13:57:19.160Z,36.70
2018-06-16T13:59:51.113Z,36.60
2018-06-16T14:02:23.160Z,36.60
2018-06-16T14:04:54.590Z,36.50
2018-06-16T14:07:26.528Z,36.40
2018-06-16T14:09:59.917Z,36.40
2018-06-16T14:12:32.596Z,36.40
2018-06-16T14:15:04.301Z,36.40
2018-06-16T14:17:36.251Z,36.40
2018-06-16T14:20:08.967Z,36.40
2018-06-16T14:22:40.844Z,36.30
2018-06-16T14:25:12.500Z,36.10
2018-06-16T14:27:44.339Z,36.10
2018-06-16T14:30:16.654Z,36.00
2018-06-16T14:32:48.972Z,36.00
2018-06-16T14:35:20.976Z,36.00
2018-06-16T14:37:52.861Z,35.90
2018-06-16T14:40:24.307Z,35.80
2018-06-16T14:42:56.186Z,35.80
2018-06-16T14:47:59.231Z,35.70
2018-06-16T14:50:31.076Z,35.60
2018-06-16T14:53:02.942Z,35.60
2018-06-16T14:55:34.691Z,35.50
2018-06-16T15:00:37.413Z,35.40
2018-06-16T15:03:09.069Z,35.40
2018-06-16T15:05:40.636Z,35.40
2018-06-16T15:08:12.745Z,35.30
2018-06-16T15:10:45.212Z,35.30
2018-06-16T15:13:17.207Z,35.30
2018-06-16T15:18:19.806Z,35.30
2018-06-16T15:23:21.527Z,35.20
2018-06-16T15:25:53.109Z,35.20
2018-06-16T15:28:24.958Z,35.20
2018-06-16T15:30:56.679Z,35.10
2018-06-16T15:33:28.452Z,35.10
2018-06-16T15:35:59.900Z,35.10
2018-06-16T15:41:02.642Z,35.00
2018-06-16T15:43:34.522Z,35.00
2018-06-16T15:51:08.349Z,34.90
2018-06-16T15:53:42.020Z,34.90
2018-06-16T15:56:13.724Z,34.90
2018-06-16T16:01:17.544Z,34.80
2018-06-16T16:03:49.217Z,34.80
2018-06-16T16:06:20.987Z,34.80
2018-06-16T16:08:52.868Z,34.80
2018-06-16T16:11:25.569Z,34.80
2018-06-16T16:13:57.763Z,34.70
2018-06-16T16:16:29.410Z,34.80
2018-06-16T16:19:01.494Z,34.70
2018-06-16T16:21:33.160Z,34.70
2018-06-16T16:24:05.076Z,34.70
2018-06-16T16:26:36.743Z,34.70
2018-06-16T16:29:08.924Z,34.60
2018-06-16T16:31:40.674Z,34.60
2018-06-16T16:34:12.880Z,34.60
2018-06-16T16:36:44.561Z,34.60
2018-06-16T16:39:16.130Z,34.50
2018-06-16T16:41:47.715Z,34.50
2018-06-16T16:44:19.904Z,34.50
2018-06-16T16:46:51.443Z,34.50
2018-06-16T16:49:23.479Z,34.50
2018-06-16T16:51:55.296Z,34.40
2018-06-16T16:56:57.851Z,34.30
2018-06-16T16:59:29.691Z,34.30
2018-06-16T17:02:01.455Z,34.30
2018-06-16T17:04:33.463Z,34.30
2018-06-16T17:07:05.529Z,34.30
2018-06-16T17:09:37.599Z,34.20
2018-06-16T17:12:10.899Z,34.20
2018-06-16T17:17:13.917Z,34.20
2018-06-16T17:19:45.549Z,34.10
2018-06-16T17:22:17.724Z,34.10
2018-06-16T17:24:49.743Z,34.10
2018-06-16T17:27:21.159Z,34.10
2018-06-16T17:32:23.836Z,34.10
2018-06-16T17:34:55.639Z,34.10
2018-06-16T17:37:27.377Z,34.00
2018-06-16T17:42:29.992Z,34.00
2018-06-16T17:45:02.132Z,33.90
2018-06-16T17:47:33.614Z,33.90
2018-06-16T17:50:05.372Z,33.90
2018-06-16T17:52:37.401Z,33.90
2018-06-16T17:57:40.288Z,33.80
2018-06-16T18:00:12.372Z,33.80
2018-06-16T18:02:44.203Z,33.80
2018-06-16T18:05:16.337Z,33.70
2018-06-16T18:07:47.920Z,33.70
2018-06-16T18:10:19.436Z,33.60
2018-06-16T18:12:52.219Z,33.60
2018-06-16T18:15:24.039Z,33.70
2018-06-16T18:17:55.581Z,33.60
2018-06-16T18:20:27.591Z,33.60
2018-06-16T18:22:59.312Z,33.60
2018-06-16T18:25:31.385Z,33.60
2018-06-16T18:28:03.006Z,33.70
2018-06-16T18:30:34.680Z,33.60
2018-06-16T18:33:06.268Z,33.50
2018-06-16T18:35:38.425Z,33.50
2018-06-16T18:38:10.223Z,33.50
2018-06-16T18:40:41.952Z,33.40
2018-06-16T18:43:13.396Z,33.40
2018-06-16T18:45:45.450Z,33.40
2018-06-16T18:48:17.057Z,33.30
2018-06-16T18:50:48.567Z,33.30
2018-06-16T18:53:19.966Z,33.30
2018-06-16T18:55:51.915Z,33.30
2018-06-16T18:58:23.784Z,33.30
2018-06-16T19:03:35.115Z,33.30
2018-06-16T19:06:06.901Z,33.30
2018-06-16T19:08:38.767Z,33.20
2018-06-16T19:11:10.244Z,33.30
2018-06-16T19:13:43.861Z,33.20
2018-06-16T19:16:15.514Z,33.20
2018-06-16T19:18:47.447Z,33.20
2018-06-16T19:21:19.380Z,33.20
2018-06-16T19:23:51.113Z,33.20
2018-06-16T19:26:22.940Z,33.20
2018-06-16T19:28:54.833Z,33.20
2018-06-16T19:31:26.357Z,33.20
2018-06-16T19:33:58.369Z,33.20
2018-06-16T19:36:29.762Z,33.20
2018-06-16T19:39:01.465Z,33.20
2018-06-16T19:41:33.104Z,33.20
2018-06-16T19:44:04.895Z,33.20
2018-06-16T19:46:36.688Z,33.20
2018-06-16T19:49:08.952Z,33.10
2018-06-16T19:51:40.655Z,33.10
2018-06-16T19:54:12.407Z,33.10
2018-06-16T19:56:44.002Z,33.10
2018-06-16T19:59:15.747Z,33.10
2018-06-16T20:01:47.277Z,33.10
2018-06-16T20:04:19.337Z,33.10
2018-06-16T20:06:50.960Z,33.20
2018-06-16T20:09:22.677Z,33.10
2018-06-16T20:11:54.353Z,33.10
2018-06-16T20:14:26.616Z,33.10
2018-06-16T20:16:58.055Z,33.10
2018-06-16T20:19:29.661Z,33.00
2018-06-16T20:22:01.650Z,33.00
2018-06-16T20:24:33.355Z,33.10
2018-06-16T20:27:05.049Z,33.10
2018-06-16T20:29:36.906Z,33.10
2018-06-16T20:32:08.419Z,33.00
2018-06-16T20:34:40.141Z,33.10
2018-06-16T20:37:11.828Z,33.00
2018-06-16T20:39:43.550Z,33.00
2018-06-16T20:42:15.297Z,33.00
2018-06-16T20:44:47.452Z,33.00
2018-06-16T20:47:19.188Z,33.00
2018-06-16T20:49:51.306Z,32.90
2018-06-16T20:52:22.784Z,32.90
2018-06-16T20:54:54.457Z,32.90
2018-06-16T20:57:26.195Z,32.90
2018-06-16T20:59:58.319Z,32.70
2018-06-16T21:02:29.916Z,32.70
2018-06-16T21:07:32.212Z,32.50
2018-06-16T21:10:03.968Z,32.40
2018-06-16T21:12:35.765Z,32.30
2018-06-16T21:15:08.759Z,32.20
2018-06-16T21:17:40.764Z,32.20
2018-06-16T21:20:12.591Z,32.10
2018-06-16T21:22:44.285Z,32.10
2018-06-16T21:25:16.246Z,32.00
2018-06-16T21:27:47.792Z,32.00
2018-06-16T21:30:19.662Z,32.00
2018-06-16T21:32:51.248Z,32.00
2018-06-16T21:35:22.894Z,31.90
2018-06-16T21:37:54.406Z,31.90
2018-06-16T21:40:26.427Z,31.80
2018-06-16T21:42:58.160Z,31.80
2018-06-16T21:45:30.088Z,31.70
2018-06-16T21:48:01.480Z,31.60
2018-06-16T21:50:33.156Z,31.60
2018-06-16T21:55:35.841Z,31.50
2018-06-16T21:58:07.539Z,31.60
2018-06-16T22:00:39.320Z,31.50
2018-06-16T22:03:11.408Z,31.50
2018-06-16T22:05:43.550Z,31.50
2018-06-16T22:08:25.813Z,31.50
2018-06-16T22:16:01.213Z,31.40
2018-06-16T22:18:32.818Z,31.40
2018-06-16T22:21:04.580Z,31.30
2018-06-16T22:23:36.109Z,31.30
2018-06-16T22:26:07.946Z,31.20
2018-06-16T22:28:39.679Z,31.20
2018-06-16T22:31:11.283Z,31.20
2018-06-16T22:33:42.878Z,31.20
2018-06-16T22:36:15.062Z,31.20
2018-06-16T22:38:46.708Z,31.10
2018-06-16T22:41:18.726Z,31.10
2018-06-16T22:43:50.247Z,31.10
2018-06-16T22:46:21.975Z,31.00
2018-06-16T22:48:53.758Z,31.00
2018-06-16T22:51:25.550Z,31.00
2018-06-16T22:53:57.090Z,31.00
2018-06-16T22:56:29.460Z,30.90
2018-06-16T22:59:00.967Z,30.90
2018-06-16T23:01:33.619Z,30.90
2018-06-16T23:04:05.218Z,30.90
2018-06-16T23:06:37.429Z,30.80
2018-06-16T23:09:11.564Z,30.80
2018-06-16T23:11:43.543Z,30.80
2018-06-16T23:14:15.163Z,30.80
2018-06-16T23:16:48.215Z,30.80
2018-06-16T23:19:19.738Z,30.80
2018-06-16T23:21:51.809Z,30.70
2018-06-16T23:24:23.255Z,30.70
2018-06-16T23:26:55.236Z,30.70
2018-06-16T23:29:26.640Z,30.70
2018-06-16T23:31:58.563Z,30.70
2018-06-16T23:34:30.289Z,30.70
2018-06-16T23:37:02.270Z,30.60
2018-06-16T23:39:33.727Z,30.60
2018-06-16T23:42:05.584Z,30.60
2018-06-16T23:44:37.155Z,30.60
2018-06-16T23:49:50.652Z,30.50
2018-06-16T23:52:23.045Z,30.50
2018-06-16T23:54:54.731Z,30.40
2018-06-16T23:59:57.353Z,30.40
